Main page
METAR-TAF:

METAR-TAF

Airports :

Kasane Airport

Kasane, Botswana

latitude: 17-49S, longitude: 025-09E, elevation: 968 m

Current weather observation

The report was made 40 minutes ago, at 12:00 UTC
Wind 8 kt from the West, varying between Southwest and Northwest
Temperature 35°C
Humidity 27%
Pressure 1014 hPa
Visibility 10 km or more
Scattered clouds at a height of 3000 ft

METAR: FBKE 211200Z 28008KT 230V320 9999 SCT030 35/13 Q1014

Time: 14:40 (12:40 UTC)

Forecast

The report was made 3 hours and 40 minutes ago, at 09:00 UTC
Forecast valid from 21 at 12 UTC to 21 at 21 UTC
Wind 8 kt from the East/Southeast
Visibility 10 km or more
no clouds below 1500 m and no cumulonimbus

TAF: FBKE 210900Z 2112/2121 12008KT CAVOK

Weather observations and forecasts of more than 4000 airports (METAR and TAF reports).

The available stations are represented by yellow and red dots on the map.

Hover mouse over dot to see the name of the station.

Then click to see weather observations and forecasts.

To change the map : click on the green buttons with a black cross to zoom in, on the green button with a dash to zoom out, or on the green arrows for adjacent maps.


METAR-TAF: